createdAt,value
2023-03-25T00:00:24.455Z,98.94
2023-03-25T00:01:24.440Z,98.90
2023-03-25T00:02:24.479Z,98.94
2023-03-25T00:03:24.733Z,98.94
2023-03-25T00:04:24.401Z,98.94
2023-03-25T00:05:24.367Z,98.84
2023-03-25T00:06:24.560Z,98.84
2023-03-25T00:07:24.583Z,98.84
2023-03-25T00:08:24.628Z,98.84
2023-03-25T00:09:24.586Z,98.94
2023-03-25T00:10:24.316Z,99.15
2023-03-25T00:11:24.545Z,99.15
2023-03-25T00:12:24.516Z,99.25
2023-03-25T00:13:24.281Z,99.25
2023-03-25T00:14:24.700Z,99.46
2023-03-25T00:15:24.510Z,99.35
2023-03-25T00:16:24.530Z,99.35
2023-03-25T00:17:24.299Z,99.25
2023-03-25T00:18:24.251Z,99.15
2023-03-25T00:19:24.434Z,99.25
2023-03-25T00:20:24.783Z,99.25
2023-03-25T00:21:24.223Z,99.25
2023-03-25T00:22:24.188Z,99.25
2023-03-25T00:23:24.177Z,99.25
2023-03-25T00:24:24.180Z,99.15
2023-03-25T00:25:24.168Z,99.15
2023-03-25T00:26:24.133Z,99.15
2023-03-25T00:27:24.147Z,99.05
2023-03-25T00:28:24.111Z,99.05
2023-03-25T00:29:24.124Z,99.19
2023-03-25T00:30:24.103Z,99.25
2023-03-25T00:31:24.075Z,99.35
2023-03-25T00:32:24.147Z,99.87
2023-03-25T00:33:24.049Z,99.99
2023-03-25T00:34:24.046Z,99.99
2023-03-25T00:35:24.375Z,99.99
2023-03-25T00:36:24.034Z,99.93
2023-03-25T00:37:24.021Z,99.82
2023-03-25T00:38:24.015Z,99.82
2023-03-25T00:39:23.980Z,99.82
2023-03-25T00:40:24.014Z,99.99
2023-03-25T00:41:23.971Z,99.88
2023-03-25T00:42:23.971Z,99.93
2023-03-25T00:43:23.949Z,99.77
2023-03-25T00:44:23.929Z,99.77
2023-03-25T00:45:23.954Z,99.88
2023-03-25T00:46:23.999Z,99.88
2023-03-25T00:47:23.936Z,99.98
2023-03-25T00:48:23.905Z,99.98
2023-03-25T00:49:23.890Z,99.98
2023-03-25T00:50:23.864Z,99.98
2023-03-25T00:51:23.879Z,99.98
2023-03-25T00:52:23.876Z,99.93
2023-03-25T00:53:23.838Z,99.93
2023-03-25T00:54:23.871Z,99.93
2023-03-25T00:55:23.910Z,99.93
2023-03-25T00:56:23.977Z,99.99
2023-03-25T00:57:23.808Z,99.99
2023-03-25T00:58:23.781Z,99.99
2023-03-25T00:59:23.788Z,99.99
2023-03-25T01:00:23.756Z,99.99
2023-03-25T01:01:23.824Z,99.89
2023-03-25T01:02:23.841Z,99.79
2023-03-25T01:03:23.903Z,99.68
2023-03-25T01:04:23.713Z,99.68
2023-03-25T01:05:23.695Z,99.58
2023-03-25T01:06:23.725Z,99.58
2023-03-25T01:07:23.687Z,99.43
2023-03-25T01:08:23.708Z,99.02
2023-03-25T01:09:23.673Z,98.82
2023-03-25T01:10:23.659Z,98.82
2023-03-25T01:11:23.780Z,98.92
2023-03-25T01:12:23.632Z,98.92
2023-03-25T01:13:23.642Z,98.82
2023-03-25T01:14:23.665Z,98.82
2023-03-25T01:15:23.593Z,98.82
2023-03-25T01:16:23.620Z,98.82
2023-03-25T01:17:23.597Z,98.82
2023-03-25T01:18:23.856Z,98.71
2023-03-25T01:19:23.554Z,98.71
2023-03-25T01:20:23.531Z,98.82
2023-03-25T01:21:23.516Z,98.71
2023-03-25T01:22:23.534Z,98.71
2023-03-25T01:23:23.512Z,98.61
2023-03-25T01:24:23.510Z,98.71
2023-03-25T01:25:23.479Z,98.71
2023-03-25T01:26:23.490Z,98.82
2023-03-25T01:27:23.540Z,98.82
2023-03-25T01:28:23.481Z,98.82
2023-03-25T01:29:23.470Z,98.82
2023-03-25T01:30:23.455Z,98.92
2023-03-25T01:31:23.432Z,98.92
2023-03-25T01:32:23.510Z,98.92
2023-03-25T01:33:23.372Z,98.92
2023-03-25T01:34:23.670Z,98.92
2023-03-25T01:35:23.516Z,98.92
2023-03-25T01:36:23.348Z,98.92
2023-03-25T01:37:23.366Z,98.82
2023-03-25T01:38:23.358Z,98.82
2023-03-25T01:39:23.487Z,98.82
2023-03-25T01:40:23.309Z,98.82
2023-03-25T01:41:23.287Z,98.82
2023-03-25T01:42:23.296Z,98.86
2023-03-25T01:43:23.273Z,98.96
2023-03-25T01:44:23.257Z,99.07
2023-03-25T01:45:23.280Z,99.07
2023-03-25T01:46:23.448Z,99.07
2023-03-25T01:47:23.311Z,99.07
2023-03-25T01:48:23.220Z,99.07
2023-03-25T01:49:23.202Z,99.07
2023-03-25T01:50:23.205Z,98.96
2023-03-25T01:51:23.184Z,98.96
2023-03-25T01:52:23.170Z,98.76
2023-03-25T01:53:23.491Z,98.82
2023-03-25T01:54:23.143Z,98.82
2023-03-25T01:55:23.135Z,98.82
2023-03-25T01:56:23.218Z,98.71
2023-03-25T01:57:23.116Z,98.76
2023-03-25T01:58:23.113Z,98.76
2023-03-25T01:59:23.137Z,98.71
2023-03-25T02:00:23.245Z,98.76
2023-03-25T02:01:23.113Z,98.76
2023-03-25T02:02:23.072Z,98.76
2023-03-25T02:03:23.091Z,98.76
2023-03-25T02:04:23.059Z,98.76
2023-03-25T02:05:23.074Z,98.76
2023-03-25T02:06:23.063Z,98.66
2023-03-25T02:07:23.020Z,98.66
2023-03-25T02:08:23.033Z,98.66
2023-03-25T02:09:23.002Z,98.66
2023-03-25T02:10:22.977Z,98.66
2023-03-25T02:11:23.039Z,98.55
2023-03-25T02:12:22.949Z,98.45
2023-03-25T02:13:22.944Z,98.45
2023-03-25T02:14:22.923Z,98.45
2023-03-25T02:15:22.949Z,98.45
2023-03-25T02:16:22.960Z,98.45
2023-03-25T02:17:22.984Z,98.45
2023-03-25T02:18:22.890Z,98.45
2023-03-25T02:19:22.872Z,98.45
2023-03-25T02:20:22.862Z,98.45
2023-03-25T02:21:23.062Z,98.45
2023-03-25T02:22:22.845Z,98.45
2023-03-25T02:23:22.861Z,98.45
2023-03-25T02:24:22.814Z,98.35
2023-03-25T02:25:22.795Z,98.35
2023-03-25T02:26:22.802Z,98.50
2023-03-25T02:27:22.790Z,98.50
2023-03-25T02:28:22.772Z,98.50
2023-03-25T02:29:22.768Z,98.50
2023-03-25T02:30:22.753Z,98.50
2023-03-25T02:31:22.805Z,98.60
2023-03-25T02:32:22.745Z,98.50
2023-03-25T02:33:22.715Z,98.60
2023-03-25T02:34:23.008Z,98.60
2023-03-25T02:35:22.728Z,98.70
2023-03-25T02:36:22.703Z,98.70
2023-03-25T02:37:22.679Z,98.60
2023-03-25T02:38:22.664Z,98.70
2023-03-25T02:39:22.660Z,98.70
2023-03-25T02:40:22.668Z,98.70
2023-03-25T02:41:22.629Z,98.80
2023-03-25T02:42:22.810Z,98.80
2023-03-25T02:43:22.598Z,98.80
2023-03-25T02:44:22.817Z,98.80
2023-03-25T02:45:22.577Z,98.76
2023-03-25T02:46:22.600Z,98.55
2023-03-25T02:47:22.649Z,98.14
2023-03-25T02:48:22.551Z,98.14
2023-03-25T02:49:22.714Z,97.94
2023-03-25T02:50:22.532Z,98.04
2023-03-25T02:51:22.540Z,97.94
2023-03-25T02:52:22.510Z,97.89
2023-03-25T02:53:22.529Z,97.79
2023-03-25T02:54:22.465Z,97.79
2023-03-25T02:55:22.471Z,97.79
2023-03-25T02:56:22.463Z,97.79
2023-03-25T02:57:22.440Z,97.79
2023-03-25T02:58:22.438Z,97.89
2023-03-25T02:59:22.456Z,97.89
2023-03-25T03:00:22.408Z,97.89
2023-03-25T03:01:22.420Z,97.89
2023-03-25T03:02:22.569Z,97.89
2023-03-25T03:03:22.470Z,97.48
2023-03-25T03:04:22.367Z,97.48
2023-03-25T03:05:22.389Z,97.48
2023-03-25T03:06:22.551Z,97.28
2023-03-25T03:07:22.326Z,96.77
2023-03-25T03:08:22.311Z,96.77
2023-03-25T03:09:22.309Z,96.97
2023-03-25T03:10:22.523Z,97.07
2023-03-25T03:11:22.346Z,97.17
2023-03-25T03:12:22.266Z,97.17
2023-03-25T03:13:22.274Z,97.28
2023-03-25T03:14:22.479Z,97.28
2023-03-25T03:15:22.494Z,97.38
2023-03-25T03:16:22.291Z,97.38
2023-03-25T03:17:22.403Z,97.38
2023-03-25T03:18:22.288Z,97.28
2023-03-25T03:19:22.218Z,97.28
2023-03-25T03:20:22.201Z,97.38
2023-03-25T03:21:22.175Z,97.38
2023-03-25T03:22:22.191Z,97.48
2023-03-25T03:23:22.425Z,97.28
2023-03-25T03:24:22.150Z,97.17
2023-03-25T03:25:22.163Z,97.17
2023-03-25T03:26:22.137Z,97.07
2023-03-25T03:27:22.109Z,96.87
2023-03-25T03:28:22.113Z,96.97
2023-03-25T03:29:22.105Z,97.07
2023-03-25T03:30:22.165Z,97.07
2023-03-25T03:31:48.442Z,96.87
2023-03-25T03:32:22.201Z,96.51
2023-03-25T03:33:22.059Z,96.77
2023-03-25T03:34:22.056Z,96.82
2023-03-25T03:35:22.075Z,96.92
2023-03-25T03:36:22.033Z,96.62
2023-03-25T03:37:22.012Z,96.62
2023-03-25T03:38:21.996Z,96.72
2023-03-25T03:39:21.989Z,96.92
2023-03-25T03:40:21.964Z,96.92
2023-03-25T03:41:21.963Z,96.92
2023-03-25T03:42:21.954Z,96.87
2023-03-25T03:43:21.941Z,96.87
2023-03-25T03:44:21.928Z,96.77
2023-03-25T03:45:22.117Z,96.87
2023-03-25T03:46:29.948Z,96.77
2023-03-25T03:47:21.876Z,96.77
2023-03-25T03:48:21.871Z,96.87
2023-03-25T03:49:21.861Z,96.97
2023-03-25T03:50:21.898Z,97.07
2023-03-25T03:51:21.836Z,97.17
2023-03-25T03:52:21.872Z,97.17
2023-03-25T03:53:21.847Z,97.28
2023-03-25T03:54:21.807Z,97.28
2023-03-25T03:55:21.815Z,97.28
2023-03-25T03:56:21.775Z,97.28
2023-03-25T03:57:21.801Z,97.28
2023-03-25T03:58:21.820Z,97.28
2023-03-25T03:59:21.753Z,97.28
2023-03-25T04:00:21.766Z,97.17
2023-03-25T04:01:21.752Z,97.07
2023-03-25T04:02:21.748Z,97.07
2023-03-25T04:03:21.769Z,97.28
2023-03-25T04:04:21.738Z,97.28
2023-03-25T04:05:21.686Z,97.32
2023-03-25T04:06:21.677Z,97.17
2023-03-25T04:07:21.665Z,96.87
2023-03-25T04:08:21.663Z,96.97
2023-03-25T04:09:21.646Z,96.97
2023-03-25T04:10:21.663Z,97.22
2023-03-25T04:11:21.630Z,97.22
2023-03-25T04:12:21.640Z,97.32
2023-03-25T04:13:21.619Z,97.32
2023-03-25T04:14:21.626Z,97.32
2023-03-25T04:15:21.611Z,97.42
2023-03-25T04:16:21.613Z,97.12
2023-03-25T04:17:21.590Z,96.81
2023-03-25T04:18:21.537Z,96.81
2023-03-25T04:19:21.564Z,96.81
2023-03-25T04:20:21.511Z,96.91
2023-03-25T04:21:21.509Z,96.91
2023-03-25T04:22:21.509Z,97.02
2023-03-25T04:23:21.522Z,97.12
2023-03-25T04:24:21.475Z,97.12
2023-03-25T04:25:21.599Z,97.32
2023-03-25T04:26:21.448Z,97.32
2023-03-25T04:27:21.432Z,97.42
2023-03-25T04:28:21.452Z,97.53
2023-03-25T04:29:21.420Z,97.73
2023-03-25T04:30:21.453Z,97.94
2023-03-25T04:31:21.404Z,98.04
2023-03-25T04:32:21.414Z,98.14
2023-03-25T04:33:21.374Z,98.35
2023-03-25T04:34:21.379Z,98.41
2023-03-25T04:35:21.348Z,98.71
2023-03-25T04:36:21.369Z,98.82
2023-03-25T04:37:21.350Z,98.82
2023-03-25T04:38:21.321Z,98.92
2023-03-25T04:39:21.309Z,99.02
2023-03-25T04:40:21.322Z,99.22
2023-03-25T04:41:21.307Z,99.38
2023-03-25T04:42:21.295Z,99.48
2023-03-25T04:43:21.259Z,99.48
2023-03-25T04:44:21.263Z,99.58
2023-03-25T04:45:21.268Z,99.58
2023-03-25T04:46:21.349Z,99.38
2023-03-25T04:47:21.247Z,99.38
2023-03-25T04:48:21.232Z,99.58
2023-03-25T04:49:21.454Z,99.68
2023-03-25T04:50:21.227Z,99.58
2023-03-25T04:51:21.184Z,99.58
2023-03-25T04:52:21.185Z,99.68
2023-03-25T04:53:21.229Z,99.68
2023-03-25T04:54:21.143Z,99.79
2023-03-25T04:55:21.145Z,99.79
2023-03-25T04:56:21.150Z,99.79
2023-03-25T04:57:21.129Z,99.79
2023-03-25T04:58:21.136Z,99.68
2023-03-25T04:59:21.115Z,99.68
2023-03-25T05:00:21.098Z,99.17
2023-03-25T05:01:21.099Z,98.96
2023-03-25T05:02:21.054Z,99.07
2023-03-25T05:03:21.037Z,98.96
2023-03-25T05:04:21.134Z,98.96
2023-03-25T05:05:21.036Z,98.96
2023-03-25T05:06:21.011Z,99.07
2023-03-25T05:07:20.988Z,98.86
2023-03-25T05:08:21.006Z,98.66
2023-03-25T05:09:20.962Z,98.35
2023-03-25T05:10:21.000Z,97.17
2023-03-25T05:11:20.933Z,97.17
2023-03-25T05:12:20.932Z,97.28
2023-03-25T05:13:20.925Z,97.48
2023-03-25T05:14:20.921Z,97.17
2023-03-25T05:15:20.896Z,97.07
2023-03-25T05:16:20.978Z,97.28
2023-03-25T05:17:20.889Z,97.38
2023-03-25T05:18:20.875Z,97.38
2023-03-25T05:19:21.083Z,97.48
2023-03-25T05:20:20.848Z,97.48
2023-03-25T05:21:20.882Z,97.48
2023-03-25T05:22:20.913Z,97.79
2023-03-25T05:23:20.858Z,97.79
2023-03-25T05:24:20.817Z,96.66
2023-03-25T05:25:20.785Z,96.56
2023-03-25T05:26:20.885Z,96.66
2023-03-25T05:27:20.821Z,96.66
2023-03-25T05:28:20.787Z,96.62
2023-03-25T05:29:20.748Z,96.66
2023-03-25T05:30:20.727Z,96.00
2023-03-25T05:31:20.770Z,95.69
2023-03-25T05:32:20.734Z,96.00
2023-03-25T05:33:20.693Z,95.69
2023-03-25T05:34:20.820Z,96.00
2023-03-25T05:35:20.673Z,96.10
2023-03-25T05:36:20.664Z,96.41
2023-03-25T05:37:20.672Z,95.79
2023-03-25T05:38:20.634Z,95.79
2023-03-25T05:39:20.630Z,96.31
2023-03-25T05:40:20.652Z,96.82
2023-03-25T05:41:20.606Z,96.82
2023-03-25T05:42:20.583Z,96.41
2023-03-25T05:43:20.618Z,96.72
2023-03-25T05:44:20.582Z,97.13
2023-03-25T05:45:20.566Z,97.33
2023-03-25T05:46:20.951Z,97.28
2023-03-25T05:47:20.549Z,97.17
2023-03-25T05:48:20.549Z,97.38
2023-03-25T05:49:20.568Z,97.58
2023-03-25T05:50:20.499Z,97.69
2023-03-25T05:51:20.485Z,97.28
2023-03-25T05:52:20.491Z,97.38
2023-03-25T05:53:20.488Z,97.58
2023-03-25T05:54:20.466Z,97.69
2023-03-25T05:55:20.983Z,97.79
2023-03-25T05:56:20.454Z,97.89
2023-03-25T05:57:20.465Z,97.99
2023-03-25T05:58:20.486Z,98.10
2023-03-25T05:59:20.423Z,98.20
2023-03-25T06:00:20.460Z,98.20
2023-03-25T06:01:31.914Z,98.41
2023-03-25T06:02:20.487Z,98.41
2023-03-25T06:03:20.428Z,98.30
2023-03-25T06:04:20.408Z,98.41
2023-03-25T06:05:20.347Z,98.61
2023-03-25T06:06:20.344Z,98.20
2023-03-25T06:07:20.333Z,98.10
2023-03-25T06:08:20.323Z,98.20
2023-03-25T06:09:20.296Z,98.46
2023-03-25T06:10:20.293Z,98.77
2023-03-25T06:11:20.277Z,98.87
2023-03-25T06:12:20.263Z,99.08
2023-03-25T06:13:20.287Z,99.18
2023-03-25T06:14:20.230Z,99.28
2023-03-25T06:15:20.229Z,99.28
2023-03-25T06:16:20.315Z,99.38
2023-03-25T06:17:20.216Z,99.59
2023-03-25T06:18:20.203Z,99.69
2023-03-25T06:19:20.213Z,99.74
2023-03-25T06:20:20.187Z,99.84
2023-03-25T06:21:20.152Z,99.84
2023-03-25T06:22:20.146Z,99.95
2023-03-25T06:23:20.324Z,99.99
2023-03-25T06:24:20.180Z,99.99
2023-03-25T06:25:20.128Z,99.99
2023-03-25T06:26:20.103Z,99.99
2023-03-25T06:27:20.089Z,99.99
2023-03-25T06:28:20.116Z,99.99
2023-03-25T06:29:20.079Z,99.54
2023-03-25T06:30:20.065Z,99.49
2023-03-25T06:31:20.092Z,99.49
2023-03-25T06:32:20.037Z,99.59
2023-03-25T06:33:43.385Z,99.69
2023-03-25T06:34:21.619Z,99.69
2023-03-25T06:35:20.697Z,99.59
2023-03-25T06:36:20.063Z,99.69
2023-03-25T06:37:20.000Z,99.69
2023-03-25T06:38:19.976Z,99.79
2023-03-25T06:39:19.974Z,99.69
2023-03-25T06:40:19.992Z,99.59
2023-03-25T06:41:19.939Z,99.49
2023-03-25T06:42:19.925Z,99.49
2023-03-25T06:43:19.917Z,99.49
2023-03-25T06:44:24.689Z,99.49
2023-03-25T06:45:19.899Z,99.59
2023-03-25T06:46:19.911Z,99.69
2023-03-25T06:47:19.958Z,99.90
2023-03-25T06:48:19.859Z,99.90
2023-03-25T06:49:19.864Z,99.90
2023-03-25T06:50:19.843Z,99.85
2023-03-25T06:51:19.835Z,99.95
2023-03-25T06:52:19.850Z,99.85
2023-03-25T06:53:19.839Z,99.85
2023-03-25T06:54:19.808Z,99.85
2023-03-25T06:55:19.801Z,99.85
2023-03-25T06:56:19.774Z,99.65
2023-03-25T06:57:19.764Z,99.95
2023-03-25T06:58:19.751Z,99.99
2023-03-25T06:59:19.770Z,99.99
2023-03-25T07:00:19.722Z,99.99
2023-03-25T07:01:19.776Z,99.99
2023-03-25T07:02:19.703Z,99.99
2023-03-25T07:03:19.708Z,99.99
2023-03-25T07:04:19.788Z,99.24
2023-03-25T07:05:19.713Z,99.24
2023-03-25T07:06:19.665Z,99.44
2023-03-25T07:07:19.670Z,99.54
2023-03-25T07:08:19.637Z,99.75
2023-03-25T07:09:19.641Z,99.65
2023-03-25T07:10:19.617Z,99.44
2023-03-25T07:11:19.621Z,99.13
2023-03-25T07:12:19.603Z,99.09
2023-03-25T07:13:19.583Z,99.19
2023-03-25T07:14:19.594Z,99.29
2023-03-25T07:15:19.553Z,99.29
2023-03-25T07:16:19.643Z,99.19
2023-03-25T07:17:19.535Z,98.68
2023-03-25T07:18:19.526Z,98.78
2023-03-25T07:19:19.558Z,98.99
2023-03-25T07:20:19.520Z,99.09
2023-03-25T07:21:19.511Z,99.09
2023-03-25T07:22:19.496Z,99.09
2023-03-25T07:23:19.486Z,99.09
2023-03-25T07:24:19.486Z,98.83
2023-03-25T07:25:19.477Z,98.83
2023-03-25T07:26:19.445Z,98.74
2023-03-25T07:27:19.432Z,98.53
2023-03-25T07:28:19.438Z,98.02
2023-03-25T07:29:19.447Z,97.91
2023-03-25T07:30:19.421Z,96.79
2023-03-25T07:31:19.426Z,96.79
2023-03-25T07:32:19.398Z,97.09
2023-03-25T07:33:19.392Z,96.58
2023-03-25T07:34:19.390Z,96.28
2023-03-25T07:35:19.373Z,96.48
2023-03-25T07:36:19.339Z,94.84
2023-03-25T07:37:19.322Z,94.64
2023-03-25T07:38:19.361Z,94.95
2023-03-25T07:39:19.358Z,96.03
2023-03-25T07:40:19.340Z,95.92
2023-03-25T07:41:19.326Z,95.82
2023-03-25T07:42:19.288Z,96.23
2023-03-25T07:43:19.319Z,96.13
2023-03-25T07:44:19.278Z,95.57
2023-03-25T07:45:19.258Z,95.47
2023-03-25T07:46:19.285Z,95.37
2023-03-25T07:47:19.230Z,94.85
2023-03-25T07:48:19.237Z,94.92
2023-03-25T07:49:19.218Z,95.53
2023-03-25T07:50:19.202Z,95.32
2023-03-25T07:51:19.211Z,95.12
2023-03-25T07:52:19.179Z,94.40
2023-03-25T07:53:19.185Z,94.40
2023-03-25T07:54:19.166Z,94.51
2023-03-25T07:55:19.136Z,94.60
2023-03-25T07:56:19.115Z,94.30
2023-03-25T07:57:19.123Z,94.51
2023-03-25T07:58:19.088Z,94.81
2023-03-25T07:59:19.114Z,95.12
2023-03-25T08:00:19.081Z,95.53
2023-03-25T08:01:19.067Z,95.22
2023-03-25T08:02:19.091Z,94.81
2023-03-25T08:03:19.117Z,95.22
2023-03-25T08:04:19.070Z,94.85
2023-03-25T08:05:19.034Z,94.45
2023-03-25T08:06:19.031Z,95.26
2023-03-25T08:07:19.016Z,95.88
2023-03-25T08:08:19.018Z,95.88
2023-03-25T08:09:18.995Z,93.47
2023-03-25T08:10:18.973Z,94.08
2023-03-25T08:11:18.938Z,94.45
2023-03-25T08:12:18.935Z,94.96
2023-03-25T08:13:18.911Z,95.47
2023-03-25T08:14:18.954Z,95.84
2023-03-25T08:15:18.895Z,95.84
2023-03-25T08:16:18.941Z,95.69
2023-03-25T08:17:18.908Z,95.48
2023-03-25T08:18:18.858Z,95.28
2023-03-25T08:19:18.905Z,95.07
2023-03-25T08:20:18.850Z,94.73
2023-03-25T08:21:18.828Z,94.11
2023-03-25T08:22:18.815Z,93.91
2023-03-25T08:23:19.766Z,92.62
2023-03-25T08:24:18.823Z,93.09
2023-03-25T08:25:18.819Z,92.99
2023-03-25T08:26:18.848Z,93.29
2023-03-25T08:27:18.767Z,93.80
2023-03-25T08:28:18.781Z,93.40
2023-03-25T08:29:18.768Z,93.50
2023-03-25T08:30:18.765Z,93.40
2023-03-25T08:31:18.740Z,94.01
2023-03-25T08:32:18.706Z,93.80
2023-03-25T08:33:18.718Z,93.60
2023-03-25T08:34:18.690Z,93.40
2023-03-25T08:35:18.688Z,92.78
2023-03-25T08:36:19.465Z,92.78
2023-03-25T08:37:18.683Z,93.09
2023-03-25T08:38:18.656Z,93.19
2023-03-25T08:39:18.654Z,93.50
2023-03-25T08:40:18.627Z,92.37
2023-03-25T08:41:18.592Z,92.88
2023-03-25T08:42:18.587Z,92.52
2023-03-25T08:43:18.582Z,94.26
2023-03-25T08:44:18.618Z,94.67
2023-03-25T08:45:18.587Z,94.81
2023-03-25T08:46:18.570Z,95.02
2023-03-25T08:47:18.526Z,95.43
2023-03-25T08:48:18.545Z,95.73
2023-03-25T08:49:18.552Z,96.04
2023-03-25T08:50:18.541Z,96.45
2023-03-25T08:51:18.507Z,96.29
2023-03-25T08:52:18.485Z,96.23
2023-03-25T08:53:18.482Z,96.84
2023-03-25T08:54:18.499Z,97.46
2023-03-25T08:55:18.469Z,97.97
2023-03-25T08:56:18.436Z,98.12
2023-03-25T08:57:18.439Z,98.22
2023-03-25T08:58:18.429Z,97.71
2023-03-25T08:59:18.398Z,97.86
2023-03-25T09:00:18.382Z,97.96
2023-03-25T09:01:18.403Z,98.16
2023-03-25T09:02:18.353Z,97.96
2023-03-25T09:03:18.358Z,98.16
2023-03-25T09:04:18.368Z,98.27
2023-03-25T09:05:18.399Z,98.47
2023-03-25T09:06:18.383Z,98.58
2023-03-25T09:07:18.318Z,98.58
2023-03-25T09:08:18.318Z,98.68
2023-03-25T09:09:18.309Z,98.47
2023-03-25T09:10:18.272Z,98.32
2023-03-25T09:11:30.165Z,98.42
2023-03-25T09:12:18.287Z,98.00
2023-03-25T09:13:18.250Z,97.85
2023-03-25T09:14:18.244Z,97.44
2023-03-25T09:15:18.262Z,97.64
2023-03-25T09:16:18.256Z,98.16
2023-03-25T09:17:18.210Z,98.36
2023-03-25T09:18:18.187Z,98.25
2023-03-25T09:19:18.270Z,97.89
2023-03-25T09:20:18.159Z,97.99
2023-03-25T09:21:18.171Z,98.71
2023-03-25T09:22:18.176Z,99.02
2023-03-25T09:23:18.148Z,99.22
2023-03-25T09:24:18.159Z,99.43
2023-03-25T09:25:18.121Z,99.27
2023-03-25T09:26:18.123Z,99.38
2023-03-25T09:27:18.114Z,99.48
2023-03-25T09:28:18.083Z,99.58
2023-03-25T09:29:18.085Z,99.48
2023-03-25T09:30:18.078Z,99.07
2023-03-25T09:31:18.086Z,99.27
2023-03-25T09:32:18.049Z,99.27
2023-03-25T09:33:18.047Z,99.38
2023-03-25T09:34:18.040Z,99.58
2023-03-25T09:35:18.017Z,99.79
2023-03-25T09:36:18.010Z,99.74
2023-03-25T09:37:18.034Z,99.74
2023-03-25T09:38:17.956Z,99.63
2023-03-25T09:39:17.983Z,99.54
2023-03-25T09:40:17.948Z,98.45
2023-03-25T09:41:17.962Z,98.45
2023-03-25T09:42:17.924Z,98.76
2023-03-25T09:43:17.955Z,98.92
2023-03-25T09:44:17.932Z,99.02
2023-03-25T09:45:17.909Z,99.22
2023-03-25T09:46:24.473Z,99.22
2023-03-25T09:47:17.863Z,99.18
2023-03-25T09:48:17.855Z,99.28
2023-03-25T09:49:17.852Z,99.18
2023-03-25T09:50:17.835Z,99.03
2023-03-25T09:51:17.817Z,98.83
2023-03-25T09:52:17.808Z,98.83
2023-03-25T09:53:22.017Z,98.72
2023-03-25T09:54:17.845Z,98.68
2023-03-25T09:55:17.772Z,98.68
2023-03-25T09:56:17.771Z,98.63
2023-03-25T09:57:17.764Z,98.74
2023-03-25T09:58:17.890Z,98.63
2023-03-25T09:59:17.747Z,98.53
2023-03-25T10:00:17.727Z,98.53
2023-03-25T10:01:17.816Z,98.83
2023-03-25T10:02:17.769Z,99.04
2023-03-25T10:03:17.770Z,98.90
2023-03-25T10:04:17.687Z,98.99
2023-03-25T10:05:17.697Z,98.95
2023-03-25T10:06:17.649Z,98.85
2023-03-25T10:07:17.646Z,98.85
2023-03-25T10:08:17.636Z,97.92
2023-03-25T10:09:17.648Z,98.39
2023-03-25T10:10:17.608Z,98.39
2023-03-25T10:11:17.615Z,98.70
2023-03-25T10:12:17.600Z,98.39
2023-03-25T10:13:19.748Z,97.06
2023-03-25T10:14:17.609Z,95.94
2023-03-25T10:15:17.551Z,96.04
2023-03-25T10:16:17.571Z,95.84
2023-03-25T10:17:17.542Z,96.04
2023-03-25T10:18:17.513Z,96.41
2023-03-25T10:19:17.541Z,96.71
2023-03-25T10:20:17.498Z,96.30
2023-03-25T10:21:17.480Z,96.87
2023-03-25T10:22:17.498Z,95.59
2023-03-25T10:23:17.482Z,94.15
2023-03-25T10:24:17.497Z,94.36
2023-03-25T10:25:17.459Z,94.77
2023-03-25T10:26:17.430Z,95.28
2023-03-25T10:27:17.437Z,95.34
2023-03-25T10:28:17.422Z,95.64
2023-03-25T10:29:17.431Z,95.85
2023-03-25T10:30:17.465Z,96.01
2023-03-25T10:31:17.431Z,96.42
2023-03-25T10:32:17.376Z,95.80
2023-03-25T10:33:17.348Z,95.39
2023-03-25T10:34:17.346Z,94.64
2023-03-25T10:35:17.375Z,94.43
2023-03-25T10:36:17.331Z,94.74
2023-03-25T10:37:17.342Z,92.86
2023-03-25T10:38:17.295Z,93.98
2023-03-25T10:39:17.324Z,92.55
2023-03-25T10:40:18.650Z,94.59
2023-03-25T10:41:17.293Z,92.55
2023-03-25T10:42:17.258Z,93.26
2023-03-25T10:43:17.247Z,90.71
2023-03-25T10:44:17.263Z,91.33
2023-03-25T10:45:17.215Z,92.19
2023-03-25T10:46:17.287Z,91.67
2023-03-25T10:47:17.214Z,92.08
2023-03-25T10:48:17.204Z,90.96
2023-03-25T10:49:17.198Z,91.52
2023-03-25T10:50:17.161Z,91.82
2023-03-25T10:51:17.172Z,92.02
2023-03-25T10:52:17.147Z,92.74
2023-03-25T10:53:17.129Z,92.54
2023-03-25T10:54:17.133Z,93.09
2023-03-25T10:55:17.105Z,93.80
2023-03-25T10:56:17.087Z,93.85
2023-03-25T10:57:17.076Z,92.42
2023-03-25T10:58:17.076Z,92.87
2023-03-25T10:59:18.404Z,93.99
2023-03-25T11:00:17.078Z,94.51
2023-03-25T11:01:17.082Z,95.22
2023-03-25T11:02:17.065Z,95.57
2023-03-25T11:03:17.057Z,94.65
2023-03-25T11:04:17.025Z,95.31
2023-03-25T11:05:18.740Z,96.03
2023-03-25T11:06:17.005Z,95.72
2023-03-25T11:07:16.975Z,96.44
2023-03-25T11:08:24.490Z,96.64
2023-03-25T11:09:16.951Z,96.17
2023-03-25T11:10:16.950Z,96.58
2023-03-25T11:11:16.921Z,97.09
2023-03-25T11:12:16.922Z,97.40
2023-03-25T11:13:16.901Z,97.81
2023-03-25T11:14:16.927Z,97.96
2023-03-25T11:15:16.898Z,97.65
2023-03-25T11:16:16.951Z,97.96
2023-03-25T11:17:16.849Z,98.16
2023-03-25T11:18:16.892Z,98.27
2023-03-25T11:19:16.823Z,98.27
2023-03-25T11:20:16.836Z,98.27
2023-03-25T11:21:16.810Z,97.96
2023-03-25T11:22:16.797Z,97.75
2023-03-25T11:23:16.787Z,98.07
2023-03-25T11:24:16.780Z,98.47
2023-03-25T11:25:16.801Z,98.58
2023-03-25T11:26:16.781Z,98.16
2023-03-25T11:27:16.761Z,97.45
2023-03-25T11:28:16.760Z,97.04
2023-03-25T11:29:16.753Z,97.34
2023-03-25T11:30:16.723Z,96.98
2023-03-25T11:31:16.740Z,97.45
2023-03-25T11:32:16.691Z,97.86
2023-03-25T11:33:16.713Z,98.07
2023-03-25T11:34:16.701Z,98.33
2023-03-25T11:35:16.694Z,98.43
2023-03-25T11:36:16.648Z,98.33
2023-03-25T11:37:16.635Z,98.43
2023-03-25T11:38:16.674Z,98.53
2023-03-25T11:39:16.615Z,97.20
2023-03-25T11:40:16.629Z,97.97
2023-03-25T11:41:16.590Z,98.33
2023-03-25T11:42:16.572Z,98.65
2023-03-25T11:43:16.561Z,97.21
2023-03-25T11:44:16.550Z,97.31
2023-03-25T11:45:16.575Z,97.37
2023-03-25T11:46:16.563Z,97.67
2023-03-25T11:47:16.526Z,97.94
2023-03-25T11:48:16.587Z,98.04
2023-03-25T11:49:16.494Z,97.79
2023-03-25T11:50:16.522Z,97.17
2023-03-25T11:51:16.476Z,96.77
2023-03-25T11:52:16.471Z,96.67
2023-03-25T11:53:16.471Z,95.75
2023-03-25T11:54:16.439Z,95.85
2023-03-25T11:55:16.444Z,96.05
2023-03-25T11:56:16.431Z,96.36
2023-03-25T11:57:16.424Z,93.33
2023-03-25T11:58:16.407Z,94.06
2023-03-25T11:59:16.391Z,95.28
2023-03-25T12:00:16.408Z,95.64
2023-03-25T12:01:16.362Z,95.13
2023-03-25T12:02:16.365Z,95.03
2023-03-25T12:03:17.689Z,95.50
2023-03-25T12:04:16.331Z,96.11
2023-03-25T12:05:16.336Z,96.06
2023-03-25T12:06:16.332Z,95.76
2023-03-25T12:07:16.338Z,94.94
2023-03-25T12:08:16.318Z,94.70
2023-03-25T12:09:16.277Z,94.70
2023-03-25T12:10:16.352Z,94.55
2023-03-25T12:11:16.259Z,94.45
2023-03-25T12:12:16.255Z,91.63
2023-03-25T12:13:16.231Z,92.00
2023-03-25T12:14:16.235Z,93.22
2023-03-25T12:15:16.228Z,92.91
2023-03-25T12:16:16.233Z,92.87
2023-03-25T12:17:16.198Z,93.69
2023-03-25T12:18:16.187Z,94.20
2023-03-25T12:19:16.169Z,93.79
2023-03-25T12:20:16.291Z,92.87
2023-03-25T12:21:16.144Z,93.38
2023-03-25T12:22:16.139Z,92.81
2023-03-25T12:23:16.135Z,91.89
2023-03-25T12:24:16.108Z,92.24
2023-03-25T12:25:16.121Z,93.73
2023-03-25T12:26:16.103Z,94.45
2023-03-25T12:27:16.076Z,93.47
2023-03-25T12:28:16.148Z,93.88
2023-03-25T12:29:16.057Z,93.41
2023-03-25T12:30:16.084Z,93.62
2023-03-25T12:31:16.074Z,94.64
2023-03-25T12:32:16.025Z,95.25
2023-03-25T12:33:16.008Z,93.71
2023-03-25T12:34:16.009Z,92.23
2023-03-25T12:35:16.044Z,92.68
2023-03-25T12:36:15.974Z,92.27
2023-03-25T12:37:15.963Z,93.19
2023-03-25T12:38:15.948Z,94.42
2023-03-25T12:39:15.938Z,95.44
2023-03-25T12:40:16.027Z,96.05
2023-03-25T12:41:15.924Z,96.15
2023-03-25T12:42:15.929Z,96.51
2023-03-25T12:43:15.899Z,95.79
2023-03-25T12:44:15.897Z,96.30
2023-03-25T12:45:15.957Z,96.81
2023-03-25T12:46:16.066Z,97.08
2023-03-25T12:47:15.854Z,97.28
2023-03-25T12:48:15.876Z,97.08
2023-03-25T12:49:15.850Z,96.41
2023-03-25T12:50:15.848Z,97.22
2023-03-25T12:51:15.826Z,97.53
2023-03-25T12:52:15.789Z,97.74